Time;durP1;ratioP1;P1;durP2;ratioP2;P2;SDS_P1;SDS_P2;PMS_P1;PMS_P2;Temp;Humidity;BMP_temperature;BMP_pressure;BME280_temperature;BME280_humidity;BME280_pressure;Samples;Min_cycle;Max_cycle;Signal;HPM_P1;HPM_P2
2023/08/06 00:01:00;;;;;;;0.00;0.00;;;;;;;;;;7389705;19;20156;-71
2023/08/06 00:03:29;;;;;;;0.00;0.00;;;;;;;;;;7388935;19;20145;-71
2023/08/06 00:05:57;;;;;;;0.00;0.00;;;;;;;;;;7389014;19;20728;-71
2023/08/06 00:08:26;;;;;;;0.00;0.00;;;;;;;;;;7387938;19;20163;-70
2023/08/06 00:10:55;;;;;;;0.00;0.00;;;;;;;;;;7389866;19;20173;-71
2023/08/06 00:13:24;;;;;;;0.00;0.00;;;;;;;;;;7388266;19;20158;-72
2023/08/06 00:15:56;;;;;;;0.00;0.00;;;;;;;;;;7387731;19;20173;-69
2023/08/06 00:18:25;;;;;;;0.00;0.00;;;;;;;;;;7387114;19;20168;-71
2023/08/06 00:20:55;;;;;;;0.00;0.00;;;;;;;;;;7390679;19;20161;-70
2023/08/06 00:23:24;;;;;;;0.00;0.00;;;;;;;;;;7388812;19;20182;-72
2023/08/06 00:25:53;;;;;;;0.00;0.00;;;;;;;;;;7388097;19;20154;-71
2023/08/06 00:28:22;;;;;;;0.00;0.00;;;;;;;;;;7388941;19;20152;-68
2023/08/06 00:30:58;;;;;;;0.00;0.00;;;;;;;;;;7389196;19;20149;-73
2023/08/06 00:33:27;;;;;;;0.00;0.00;;;;;;;;;;7387544;19;20192;-71
2023/08/06 00:35:56;;;;;;;0.00;0.00;;;;;;;;;;7387294;19;20156;-71
2023/08/06 00:38:25;;;;;;;0.00;0.00;;;;;;;;;;7386653;19;20152;-68
2023/08/06 00:40:54;;;;;;;0.00;0.00;;;;;;;;;;7390462;19;20186;-71
2023/08/06 00:43:23;;;;;;;0.00;0.00;;;;;;;;;;7386728;19;20180;-69
2023/08/06 00:45:51;;;;;;;0.00;0.00;;;;;;;;;;7388759;19;20165;-70
2023/08/06 00:48:23;;;;;;;0.00;0.00;;;;;;;;;;7387723;19;20169;-70
2023/08/06 00:50:52;;;;;;;0.00;0.00;;;;;;;;;;7389088;19;20167;-70
2023/08/06 00:53:21;;;;;;;0.00;0.00;;;;;;;;;;7385956;19;20172;-68
2023/08/06 00:55:50;;;;;;;0.00;0.00;;;;;;;;;;7386245;19;20607;-72
2023/08/06 00:58:19;;;;;;;0.00;0.00;;;;;;;;;;7380444;19;20156;-71
2023/08/06 01:00:48;;;;;;;0.00;0.00;;;;;;;;;;7389079;19;20178;-71
2023/08/06 01:03:17;;;;;;;0.00;0.00;;;;;;;;;;7388039;19;20228;-69
2023/08/06 01:05:49;;;;;;;0.00;0.00;;;;;;;;;;7388990;19;20137;-69
2023/08/06 01:08:25;;;;;;;0.00;0.00;;;;;;;;;;7388215;19;20145;-70
2023/08/06 01:11:03;;;;;;;0.00;0.00;;;;;;;;;;7390545;19;20177;-70
2023/08/06 01:13:35;;;;;;;0.00;0.00;;;;;;;;;;7384044;19;20667;-68
2023/08/06 01:16:05;;;;;;;0.00;0.00;;;;;;;;;;7386015;19;20191;-71
2023/08/06 01:18:35;;;;;;;0.00;0.00;;;;;;;;;;7384395;19;20161;-71
2023/08/06 01:21:06;;;;;;;0.00;0.00;;;;;;;;;;7386886;19;20157;-70
2023/08/06 01:23:35;;;;;;;0.00;0.00;;;;;;;;;;7386206;19;20149;-69
2023/08/06 01:26:08;;;;;;;0.00;0.00;;;;;;;;;;7387833;19;20150;-68
2023/08/06 01:28:43;;;;;;;0.00;0.00;;;;;;;;;;7387525;19;20169;-69
2023/08/06 01:31:17;;;;;;;0.00;0.00;;;;;;;;;;7388322;19;20156;-71
2023/08/06 01:33:47;;;;;;;0.00;0.00;;;;;;;;;;7387147;19;20213;-69
2023/08/06 01:36:19;;;;;;;0.00;0.00;;;;;;;;;;7387664;19;20152;-70
2023/08/06 01:38:48;;;;;;;0.00;0.00;;;;;;;;;;7394412;19;20141;-70
2023/08/06 01:41:17;;;;;;;0.00;0.00;;;;;;;;;;7396622;19;20198;-69
2023/08/06 01:43:46;;;;;;;0.00;0.00;;;;;;;;;;7394049;19;20153;-68
2023/08/06 01:46:15;;;;;;;0.00;0.00;;;;;;;;;;7393107;19;20528;-70
2023/08/06 01:48:44;;;;;;;0.00;0.00;;;;;;;;;;7393041;19;20149;-70
2023/08/06 01:51:13;;;;;;;0.00;0.00;;;;;;;;;;7394138;19;20161;-70
2023/08/06 01:53:44;;;;;;;0.00;0.00;;;;;;;;;;7392468;19;20145;-72
2023/08/06 01:56:14;;;;;;;0.00;0.00;;;;;;;;;;7394702;19;20137;-72
2023/08/06 01:58:43;;;;;;;0.00;0.00;;;;;;;;;;7392781;19;20149;-68
2023/08/06 02:01:12;;;;;;;0.00;0.00;;;;;;;;;;7394207;19;20173;-69
2023/08/06 02:03:40;;;;;;;0.00;0.00;;;;;;;;;;7393596;19;20600;-69
2023/08/06 02:06:09;;;;;;;0.00;0.00;;;;;;;;;;7391854;19;20149;-73
2023/08/06 02:08:39;;;;;;;0.00;0.00;;;;;;;;;;7394772;19;20173;-70
2023/08/06 02:11:11;;;;;;;0.00;0.00;;;;;;;;;;7395291;19;20158;-68
2023/08/06 02:13:39;;;;;;;0.00;0.00;;;;;;;;;;7392546;19;20144;-70
2023/08/06 02:16:10;;;;;;;0.00;0.00;;;;;;;;;;7391878;19;20170;-70
2023/08/06 02:18:39;;;;;;;0.00;0.00;;;;;;;;;;7389118;19;20141;-70
2023/08/06 02:21:08;;;;;;;0.00;0.00;;;;;;;;;;7392061;19;20169;-72
2023/08/06 02:23:37;;;;;;;0.00;0.00;;;;;;;;;;7390577;19;20184;-70
2023/08/06 02:26:07;;;;;;;0.00;0.00;;;;;;;;;;7393152;19;20153;-70
2023/08/06 02:28:38;;;;;;;0.00;0.00;;;;;;;;;;7394043;19;20145;-70
2023/08/06 02:31:09;;;;;;;0.00;0.00;;;;;;;;;;7394864;19;20143;-69
2023/08/06 02:33:40;;;;;;;0.00;0.00;;;;;;;;;;7390627;19;20187;-70
2023/08/06 02:36:09;;;;;;;0.00;0.00;;;;;;;;;;7390337;19;20149;-70
2023/08/06 02:38:38;;;;;;;0.00;0.00;;;;;;;;;;7391398;19;20153;-68
2023/08/06 02:41:07;;;;;;;0.00;0.00;;;;;;;;;;7393902;19;20176;-69
2023/08/06 02:43:38;;;;;;;0.00;0.00;;;;;;;;;;7390199;19;20188;-71
2023/08/06 02:46:07;;;;;;;0.00;0.00;;;;;;;;;;7391068;19;20160;-70
2023/08/06 02:48:36;;;;;;;0.00;0.00;;;;;;;;;;7390211;19;20164;-69
2023/08/06 02:51:05;;;;;;;0.00;0.00;;;;;;;;;;7392493;19;20152;-69
2023/08/06 02:53:35;;;;;;;0.00;0.00;;;;;;;;;;7389718;19;20196;-70
2023/08/06 02:56:08;;;;;;;0.00;0.00;;;;;;;;;;7390714;19;20153;-71
2023/08/06 02:58:52;;;;;;;0.00;0.00;;;;;;;;;;7389378;19;20187;-71
2023/08/06 03:01:36;;;;;;;0.00;0.00;;;;;;;;;;7390617;19;20179;-71
2023/08/06 03:04:10;;;;;;;0.00;0.00;;;;;;;;;;7391713;19;20240;-70
2023/08/06 03:06:43;;;;;;;0.00;0.00;;;;;;;;;;7390206;19;20153;-69
2023/08/06 03:09:12;;;;;;;0.00;0.00;;;;;;;;;;7392129;19;20152;-69
2023/08/06 03:11:41;;;;;;;0.00;0.00;;;;;;;;;;7389929;19;20156;-68
2023/08/06 03:14:18;;;;;;;0.00;0.00;;;;;;;;;;7390896;19;20251;-69
2023/08/06 03:16:48;;;;;;;0.00;0.00;;;;;;;;;;7387840;19;20152;-67
2023/08/06 03:19:19;;;;;;;0.00;0.00;;;;;;;;;;7388683;19;20164;-71
2023/08/06 03:21:49;;;;;;;0.00;0.00;;;;;;;;;;7389793;19;20152;-69
2023/08/06 03:24:18;;;;;;;0.00;0.00;;;;;;;;;;7390568;19;20157;-69
2023/08/06 03:26:48;;;;;;;0.00;0.00;;;;;;;;;;7388813;19;20165;-68
2023/08/06 03:29:21;;;;;;;0.00;0.00;;;;;;;;;;7389918;19;20734;-69
2023/08/06 03:31:50;;;;;;;0.00;0.00;;;;;;;;;;7389563;19;20152;-70
2023/08/06 03:34:19;;;;;;;0.00;0.00;;;;;;;;;;7390058;19;20152;-70
2023/08/06 03:36:50;;;;;;;0.00;0.00;;;;;;;;;;7388755;19;20148;-69
2023/08/06 03:39:19;;;;;;;0.00;0.00;;;;;;;;;;7388075;19;20149;-70
2023/08/06 03:41:48;;;;;;;0.00;0.00;;;;;;;;;;7389292;19;20186;-71
2023/08/06 03:44:20;;;;;;;0.00;0.00;;;;;;;;;;7389889;19;20148;-71
2023/08/06 03:46:49;;;;;;;0.00;0.00;;;;;;;;;;7388901;19;20162;-71
2023/08/06 03:49:18;;;;;;;0.00;0.00;;;;;;;;;;7388056;19;20160;-72
2023/08/06 03:51:48;;;;;;;0.00;0.00;;;;;;;;;;7389099;19;20160;-70
2023/08/06 03:54:17;;;;;;;0.00;0.00;;;;;;;;;;7390417;19;20140;-71
2023/08/06 03:56:46;;;;;;;0.00;0.00;;;;;;;;;;7388650;19;20133;-69
2023/08/06 03:59:15;;;;;;;0.00;0.00;;;;;;;;;;7387165;19;20176;-69
2023/08/06 04:01:46;;;;;;;0.00;0.00;;;;;;;;;;7386986;19;20164;-71
2023/08/06 04:04:16;;;;;;;0.00;0.00;;;;;;;;;;7388997;19;20157;-71
2023/08/06 04:06:45;;;;;;;0.00;0.00;;;;;;;;;;7388710;19;20129;-71
2023/08/06 04:09:13;;;;;;;0.00;0.00;;;;;;;;;;7390714;19;20141;-71
2023/08/06 04:11:42;;;;;;;0.00;0.00;;;;;;;;;;7387646;19;20160;-71
2023/08/06 04:14:11;;;;;;;0.00;0.00;;;;;;;;;;7387457;19;20148;-73
2023/08/06 04:16:40;;;;;;;0.00;0.00;;;;;;;;;;7388226;19;20137;-70
2023/08/06 04:19:13;;;;;;;0.00;0.00;;;;;;;;;;7387051;19;20152;-71
2023/08/06 04:21:42;;;;;;;0.00;0.00;;;;;;;;;;7388698;19;20157;-69
2023/08/06 04:24:11;;;;;;;0.00;0.00;;;;;;;;;;7388550;19;20140;-71
2023/08/06 04:26:39;;;;;;;0.00;0.00;;;;;;;;;;7385855;19;20157;-73
2023/08/06 04:29:08;;;;;;;0.00;0.00;;;;;;;;;;7388613;19;20181;-70
2023/08/06 04:31:37;;;;;;;0.00;0.00;;;;;;;;;;7388518;19;20157;-71
2023/08/06 04:34:07;;;;;;;0.00;0.00;;;;;;;;;;7387678;19;20156;-70
2023/08/06 04:36:39;;;;;;;0.00;0.00;;;;;;;;;;7387428;19;20153;-70
2023/08/06 04:39:13;;;;;;;0.00;0.00;;;;;;;;;;7386872;19;20145;-70
2023/08/06 04:41:42;;;;;;;0.00;0.00;;;;;;;;;;7388001;19;20176;-70
2023/08/06 04:44:11;;;;;;;0.00;0.00;;;;;;;;;;7388487;19;20173;-70
2023/08/06 04:46:41;;;;;;;0.00;0.00;;;;;;;;;;7385112;19;20163;-71
2023/08/06 04:49:10;;;;;;;0.00;0.00;;;;;;;;;;7389644;19;20165;-71
2023/08/06 04:51:42;;;;;;;0.00;0.00;;;;;;;;;;7388289;19;20132;-70
2023/08/06 04:54:10;;;;;;;0.00;0.00;;;;;;;;;;7389456;19;20125;-69
2023/08/06 04:56:39;;;;;;;0.00;0.00;;;;;;;;;;7385377;19;20156;-71
2023/08/06 04:59:08;;;;;;;0.00;0.00;;;;;;;;;;7388183;19;20141;-70
2023/08/06 05:01:37;;;;;;;0.00;0.00;;;;;;;;;;7386163;19;20148;-70
2023/08/06 05:04:06;;;;;;;0.00;0.00;;;;;;;;;;7387656;19;20148;-69
2023/08/06 05:06:38;;;;;;;0.00;0.00;;;;;;;;;;7385678;19;20169;-72
2023/08/06 05:09:09;;;;;;;0.00;0.00;;;;;;;;;;7388369;19;20196;-71
2023/08/06 05:11:38;;;;;;;0.00;0.00;;;;;;;;;;7389952;19;20161;-70
2023/08/06 05:14:07;;;;;;;0.00;0.00;;;;;;;;;;7394317;19;20237;-71
2023/08/06 05:16:36;;;;;;;0.00;0.00;;;;;;;;;;7392995;19;20162;-70
2023/08/06 05:19:04;;;;;;;0.00;0.00;;;;;;;;;;7394414;19;20165;-70
2023/08/06 05:21:33;;;;;;;0.00;0.00;;;;;;;;;;7396433;19;20150;-68
2023/08/06 05:24:02;;;;;;;0.00;0.00;;;;;;;;;;7391210;19;20177;-70
2023/08/06 05:26:34;;;;;;;0.00;0.00;;;;;;;;;;7393102;19;20180;-70
2023/08/06 05:29:03;;;;;;;0.00;0.00;;;;;;;;;;7394407;19;20235;-68
2023/08/06 05:31:32;;;;;;;0.00;0.00;;;;;;;;;;7393105;19;20153;-69
2023/08/06 05:34:02;;;;;;;0.00;0.00;;;;;;;;;;7388820;19;20187;-69
2023/08/06 05:36:30;;;;;;;0.00;0.00;;;;;;;;;;7395075;19;20161;-70
2023/08/06 05:38:59;;;;;;;0.00;0.00;;;;;;;;;;7393152;19;20161;-70
2023/08/06 05:41:28;;;;;;;0.00;0.00;;;;;;;;;;7396207;19;20172;-69
2023/08/06 05:43:59;;;;;;;0.00;0.00;;;;;;;;;;7391428;19;20173;-70
2023/08/06 05:46:28;;;;;;;0.00;0.00;;;;;;;;;;7393989;19;20149;-70
2023/08/06 05:48:57;;;;;;;0.00;0.00;;;;;;;;;;7392777;19;20149;-70
2023/08/06 05:51:26;;;;;;;0.00;0.00;;;;;;;;;;7392726;19;20161;-71
2023/08/06 05:53:55;;;;;;;0.00;0.00;;;;;;;;;;7389799;19;20176;-69
2023/08/06 05:56:24;;;;;;;0.00;0.00;;;;;;;;;;7393333;19;20190;-69
2023/08/06 05:58:53;;;;;;;0.00;0.00;;;;;;;;;;7392123;19;20161;-70
2023/08/06 06:01:25;;;;;;;0.00;0.00;;;;;;;;;;7393772;19;20137;-70
2023/08/06 06:03:54;;;;;;;0.00;0.00;;;;;;;;;;7390010;19;20188;-69
2023/08/06 06:06:23;;;;;;;0.00;0.00;;;;;;;;;;7392175;19;20157;-72
2023/08/06 06:08:52;;;;;;;0.00;0.00;;;;;;;;;;7393390;19;20152;-70
2023/08/06 06:11:22;;;;;;;0.00;0.00;;;;;;;;;;7394885;19;20140;-69
2023/08/06 06:13:51;;;;;;;0.00;0.00;;;;;;;;;;7389847;19;20209;-69
2023/08/06 06:16:20;;;;;;;0.00;0.00;;;;;;;;;;7392595;19;20137;-71
2023/08/06 06:18:51;;;;;;;0.00;0.00;;;;;;;;;;7390150;19;20474;-71
2023/08/06 06:21:20;;;;;;;0.00;0.00;;;;;;;;;;7390660;19;20160;-70
2023/08/06 06:23:51;;;;;;;0.00;0.00;;;;;;;;;;7382957;19;20204;-71
2023/08/06 06:26:20;;;;;;;0.00;0.00;;;;;;;;;;7385759;19;20152;-70
2023/08/06 06:28:49;;;;;;;0.00;0.00;;;;;;;;;;7383480;19;20178;-70
2023/08/06 06:31:18;;;;;;;0.00;0.00;;;;;;;;;;7387228;19;20180;-70
2023/08/06 06:33:47;;;;;;;0.00;0.00;;;;;;;;;;7389516;19;20180;-72
2023/08/06 06:36:18;;;;;;;0.00;0.00;;;;;;;;;;7391776;19;20180;-70
2023/08/06 06:38:47;;;;;;;0.00;0.00;;;;;;;;;;7391565;19;20153;-70
2023/08/06 06:41:16;;;;;;;0.00;0.00;;;;;;;;;;7393705;19;20152;-72
2023/08/06 06:43:46;;;;;;;0.00;0.00;;;;;;;;;;7388013;19;20184;-73
2023/08/06 06:46:15;;;;;;;0.00;0.00;;;;;;;;;;7390821;19;20144;-71
2023/08/06 06:48:44;;;;;;;0.00;0.00;;;;;;;;;;7392171;19;20149;-71
2023/08/06 06:51:12;;;;;;;0.00;0.00;;;;;;;;;;7391506;19;20153;-70
2023/08/06 06:53:44;;;;;;;0.00;0.00;;;;;;;;;;7392194;19;20156;-70
2023/08/06 06:56:13;;;;;;;0.00;0.00;;;;;;;;;;7390535;19;20164;-74
2023/08/06 06:58:42;;;;;;;0.00;0.00;;;;;;;;;;7391383;19;20153;-73
2023/08/06 07:01:11;;;;;;;0.00;0.00;;;;;;;;;;7389619;19;20149;-72
2023/08/06 07:03:40;;;;;;;0.00;0.00;;;;;;;;;;7391485;19;20790;-73
2023/08/06 07:06:09;;;;;;;0.00;0.00;;;;;;;;;;7391492;19;20146;-74
2023/08/06 07:08:38;;;;;;;0.00;0.00;;;;;;;;;;7391996;19;20148;-74
2023/08/06 07:11:10;;;;;;;0.00;0.00;;;;;;;;;;7390585;19;20149;-74
2023/08/06 07:13:39;;;;;;;0.00;0.00;;;;;;;;;;7388626;19;20763;-75
2023/08/06 07:16:08;;;;;;;0.00;0.00;;;;;;;;;;7388995;19;20156;-74
2023/08/06 07:18:37;;;;;;;0.00;0.00;;;;;;;;;;7389640;19;20148;-73
2023/08/06 07:21:06;;;;;;;0.00;0.00;;;;;;;;;;7387088;19;20234;-74
2023/08/06 07:23:35;;;;;;;0.00;0.00;;;;;;;;;;7388354;19;20188;-73
2023/08/06 07:26:04;;;;;;;0.00;0.00;;;;;;;;;;7388945;19;20153;-74
2023/08/06 07:28:35;;;;;;;0.00;0.00;;;;;;;;;;7390854;19;20149;-74
2023/08/06 07:31:06;;;;;;;0.00;0.00;;;;;;;;;;7389846;19;20152;-74
2023/08/06 07:33:34;;;;;;;0.00;0.00;;;;;;;;;;7388282;19;20197;-74
2023/08/06 07:36:10;;;;;;;0.00;0.00;;;;;;;;;;7389694;19;20156;-73
2023/08/06 07:38:40;;;;;;;0.00;0.00;;;;;;;;;;7386933;19;20152;-74
2023/08/06 07:41:09;;;;;;;0.00;0.00;;;;;;;;;;7380790;19;20160;-73
2023/08/06 07:43:42;;;;;;;0.00;0.00;;;;;;;;;;7379805;19;20184;-75
2023/08/06 07:46:13;;;;;;;0.00;0.00;;;;;;;;;;7380771;19;20149;-74
2023/08/06 07:48:42;;;;;;;0.00;0.00;;;;;;;;;;7382169;19;20160;-74
2023/08/06 07:51:11;;;;;;;0.00;0.00;;;;;;;;;;7382273;19;20181;-74
2023/08/06 07:53:40;;;;;;;0.00;0.00;;;;;;;;;;7379691;19;20180;-74
2023/08/06 07:56:09;;;;;;;0.00;0.00;;;;;;;;;;7378941;19;20161;-75
2023/08/06 07:58:40;;;;;;;0.00;0.00;;;;;;;;;;7382005;19;20182;-73
2023/08/06 08:01:09;;;;;;;0.00;0.00;;;;;;;;;;7379659;19;20157;-74
2023/08/06 08:03:38;;;;;;;0.00;0.00;;;;;;;;;;7380172;19;20180;-72
2023/08/06 08:06:07;;;;;;;0.00;0.00;;;;;;;;;;7380585;19;20153;-74
2023/08/06 08:08:38;;;;;;;0.00;0.00;;;;;;;;;;7380869;19;20160;-74
2023/08/06 08:11:07;;;;;;;0.00;0.00;;;;;;;;;;7380261;19;20168;-74
2023/08/06 08:13:36;;;;;;;0.00;0.00;;;;;;;;;;7381121;19;20159;-74
2023/08/06 08:16:08;;;;;;;0.00;0.00;;;;;;;;;;7379717;19;20166;-73
2023/08/06 08:18:37;;;;;;;0.00;0.00;;;;;;;;;;7381275;19;20168;-74
2023/08/06 08:21:06;;;;;;;0.00;0.00;;;;;;;;;;7378567;19;20161;-74
2023/08/06 08:23:35;;;;;;;0.00;0.00;;;;;;;;;;7379798;19;20204;-74
2023/08/06 08:26:04;;;;;;;0.00;0.00;;;;;;;;;;7378459;19;20172;-74
2023/08/06 08:28:33;;;;;;;0.00;0.00;;;;;;;;;;7381166;19;20285;-73
2023/08/06 08:31:02;;;;;;;0.00;0.00;;;;;;;;;;7368881;19;20164;-74
2023/08/06 08:33:34;;;;;;;0.00;0.00;;;;;;;;;;7378569;19;20181;-73
2023/08/06 08:36:03;;;;;;;0.00;0.00;;;;;;;;;;7377906;19;20149;-73
2023/08/06 08:38:33;;;;;;;0.00;0.00;;;;;;;;;;7380366;19;20181;-73
2023/08/06 08:41:02;;;;;;;0.00;0.00;;;;;;;;;;7376630;19;20152;-74
2023/08/06 08:43:31;;;;;;;0.00;0.00;;;;;;;;;;7378824;19;20184;-74
2023/08/06 08:46:01;;;;;;;0.00;0.00;;;21.20;99.90;;;;;;7374635;19;20201;-74
2023/08/06 08:48:33;;;;;;;0.00;0.00;;;21.20;99.90;;;;;;7379591;19;20148;-74
2023/08/06 08:51:02;;;;;;;0.00;0.00;;;21.40;99.90;;;;;;7378652;19;20153;-74
2023/08/06 08:53:31;;;;;;;0.00;0.00;;;21.30;99.90;;;;;;7377985;19;20201;-73
2023/08/06 08:56:00;;;;;;;0.00;0.00;;;21.30;99.90;;;;;;7378350;19;20153;-74
2023/08/06 08:58:29;;;;;;;0.00;0.00;;;21.20;99.90;;;;;;7377463;19;20153;-74
2023/08/06 09:00:58;;;;;;;0.00;0.00;;;21.30;99.90;;;;;;7375419;19;20196;-74
2023/08/06 09:03:28;;;;;;;0.00;0.00;;;21.40;99.90;;;;;;7374601;19;20176;-71
2023/08/06 09:06:00;;;;;;;0.00;0.00;;;21.30;99.90;;;;;;7373640;19;20172;-71
2023/08/06 09:08:35;;;;;;;0.00;0.00;;;21.30;99.90;;;;;;7376435;19;20655;-72
2023/08/06 09:11:05;;;;;;;0.00;0.00;;;21.40;99.90;;;;;;7371039;19;20144;-70
2023/08/06 09:13:34;;;;;;;0.00;0.00;;;21.50;99.90;;;;;;7373383;19;20188;-71
2023/08/06 09:16:02;;;;;;;0.00;0.00;;;21.50;99.90;;;;;;7374000;19;20155;-72
2023/08/06 09:18:33;;;;;;;0.00;0.00;;;21.50;99.90;;;;;;7377161;19;20160;-70
2023/08/06 09:21:04;;;;;;;0.00;0.00;;;21.60;99.90;;;;;;7374179;19;20620;-72
2023/08/06 09:23:34;;;;;;;0.00;0.00;;;21.60;99.90;;;;;;7376654;19;20179;-70
2023/08/06 09:26:03;;;;;;;0.00;0.00;;;21.60;99.90;;;;;;7376622;19;20157;-72
2023/08/06 09:28:42;;;;;;;0.00;0.00;;;21.70;99.90;;;;;;7379922;19;20159;-71
2023/08/06 09:31:11;;;;;;;0.00;0.00;;;21.70;99.90;;;;;;7379276;19;20160;-70
2023/08/06 09:33:40;;;;;;;0.00;0.00;;;21.80;99.90;;;;;;7378096;19;20211;-73
2023/08/06 09:36:15;;;;;;;0.00;0.00;;;21.70;99.90;;;;;;7379301;19;20140;-72
2023/08/06 09:38:44;;;;;;;0.00;0.00;;;21.70;99.90;;;;;;7381217;19;20140;-71
2023/08/06 09:41:12;;;;;;;0.00;0.00;;;21.50;99.90;;;;;;7377813;19;20157;-74
2023/08/06 09:43:44;;;;;;;0.00;0.00;;;21.50;99.90;;;;;;7378751;19;20169;-72
2023/08/06 09:46:16;;;;;;;0.00;0.00;;;21.40;99.90;;;;;;7379131;19;20137;-72
2023/08/06 09:48:48;;;;;;;0.00;0.00;;;21.30;99.90;;;;;;7379927;19;20173;-72
2023/08/06 09:51:19;;;;;;;0.00;0.00;;;21.20;99.90;;;;;;7377958;19;20174;-71
2023/08/06 09:53:51;;;;;;;0.00;0.00;;;21.30;99.90;;;;;;7378116;19;20165;-75
2023/08/06 09:56:26;;;;;;;0.00;0.00;;;21.30;99.90;;;;;;7379266;19;20204;-73
2023/08/06 09:58:56;;;;;;;0.00;0.00;;;21.30;99.90;;;;;;7386109;19;20157;-71
2023/08/06 10:01:26;;;;;;;0.00;0.00;;;21.40;99.90;;;;;;7385585;19;20137;-71
2023/08/06 10:03:55;;;;;;;0.00;0.00;;;21.30;99.90;;;;;;7385306;19;20184;-73
2023/08/06 10:06:29;;;;;;;0.00;0.00;;;21.20;99.90;;;;;;7384021;19;20157;-71
2023/08/06 10:08:57;;;;;;;0.00;0.00;;;21.00;99.90;;;;;;7387415;19;20144;-70
2023/08/06 10:11:27;;;;;;;0.00;0.00;;;20.90;99.90;;;;;;7387398;19;20133;-72
2023/08/06 10:14:00;;;;;;;0.00;0.00;;;21.00;99.90;;;;;;7382714;19;20189;-70
2023/08/06 10:16:30;;;;;;;0.00;0.00;;;20.90;99.90;;;;;;7386030;19;20146;-70
2023/08/06 10:19:00;;;;;;;0.00;0.00;;;20.90;99.90;;;;;;7386555;19;20137;-69
2023/08/06 10:21:33;;;;;;;0.00;0.00;;;20.90;99.90;;;;;;7383157;19;20164;-69
2023/08/06 10:24:03;;;;;;;0.00;0.00;;;21.00;99.90;;;;;;7383819;19;20160;-72
2023/08/06 10:26:32;;;;;;;0.00;0.00;;;21.00;99.90;;;;;;7385613;19;20137;-72
2023/08/06 10:29:01;;;;;;;0.00;0.00;;;21.20;99.90;;;;;;7385944;19;20138;-70
2023/08/06 10:31:57;;;;;;;0.00;0.00;;;21.10;99.90;;;;;;7386356;19;20140;-70
2023/08/06 10:34:25;;;;;;;0.00;0.00;;;21.20;99.90;;;;;;7384944;19;20149;-69
2023/08/06 10:36:59;;;;;;;0.00;0.00;;;21.30;99.90;;;;;;7384881;19;20145;-73
2023/08/06 10:39:28;;;;;;;0.00;0.00;;;21.40;99.90;;;;;;7387094;19;20145;-73
2023/08/06 10:41:56;;;;;;;0.00;0.00;;;21.30;99.90;;;;;;7383862;19;20165;-72
2023/08/06 10:44:25;;;;;;;0.00;0.00;;;21.30;99.90;;;;;;7382627;19;20145;-71
2023/08/06 10:46:54;;;;;;;0.00;0.00;;;21.20;99.90;;;;;;7361031;19;20190;-71
2023/08/06 10:49:22;;;;;;;0.00;0.00;;;21.30;99.90;;;;;;7383779;19;20197;-72
2023/08/06 10:51:51;;;;;;;0.00;0.00;;;21.50;99.90;;;;;;7383384;19;20133;-73
2023/08/06 10:54:22;;;;;;;0.00;0.00;;;21.70;99.90;;;;;;7382366;19;20145;-72
2023/08/06 10:56:51;;;;;;;0.00;0.00;;;21.90;99.90;;;;;;7380639;19;20164;-74
2023/08/06 10:59:20;;;;;;;0.00;0.00;;;22.20;99.90;;;;;;7373765;19;20133;-74
2023/08/06 11:01:48;;;;;;;0.00;0.00;;;22.40;99.90;;;;;;7376967;19;20153;-70
2023/08/06 11:04:18;;;;;;;0.00;0.00;;;22.30;99.90;;;;;;7384037;19;20137;-71
2023/08/06 11:06:54;;;;;;;0.00;0.00;;;22.40;99.90;;;;;;7380000;19;20647;-70
2023/08/06 11:09:26;;;;;;;0.00;0.00;;;22.50;99.90;;;;;;7380636;19;20155;-71
2023/08/06 11:11:55;;;;;;;0.00;0.00;;;22.60;99.90;;;;;;7382628;19;20208;-71
2023/08/06 11:14:23;;;;;;;0.00;0.00;;;22.50;99.90;;;;;;7385642;19;20137;-71
2023/08/06 11:16:54;;;;;;;0.00;0.00;;;22.60;99.90;;;;;;7383105;19;20133;-72
2023/08/06 11:19:23;;;;;;;0.00;0.00;;;22.50;99.90;;;;;;7381882;19;20161;-73
2023/08/06 11:21:53;;;;;;;0.00;0.00;;;22.40;99.90;;;;;;7383223;19;20169;-70
2023/08/06 11:24:27;;;;;;;0.00;0.00;;;22.20;99.90;;;;;;7384363;19;20137;-70
2023/08/06 11:26:55;;;;;;;0.00;0.00;;;22.20;99.90;;;;;;7381757;19;20141;-71
2023/08/06 11:29:26;;;;;;;0.00;0.00;;;22.00;99.90;;;;;;7383237;19;20133;-71
2023/08/06 11:31:54;;;;;;;0.00;0.00;;;22.00;99.90;;;;;;7382615;19;20182;-71
2023/08/06 11:34:24;;;;;;;0.00;0.00;;;22.00;99.90;;;;;;7382589;19;20133;-73
2023/08/06 11:36:52;;;;;;;0.00;0.00;;;22.00;99.90;;;;;;7380214;19;20161;-71
2023/08/06 11:39:21;;;;;;;0.00;0.00;;;22.00;99.90;;;;;;7378283;19;20173;-72
2023/08/06 11:41:53;;;;;;;0.00;0.00;;;22.10;99.90;;;;;;7378509;19;20164;-71
2023/08/06 11:44:22;;;;;;;0.00;0.00;;;22.10;99.90;;;;;;7374434;19;20152;-72
2023/08/06 11:46:55;;;;;;;0.00;0.00;;;21.90;99.90;;;;;;7378648;19;20156;-73
2023/08/06 11:49:44;;;;;;;0.00;0.00;;;21.80;99.90;;;;;;7378474;19;20144;-71
2023/08/06 11:52:19;;;;;;;0.00;0.00;;;21.60;99.90;;;;;;7381009;19;20161;-70
2023/08/06 11:54:48;;;;;;;0.00;0.00;;;21.50;99.90;;;;;;7371469;19;20159;-72
2023/08/06 11:57:19;;;;;;;0.00;0.00;;;21.40;99.90;;;;;;7382039;19;20175;-72
2023/08/06 11:59:48;;;;;;;0.00;0.00;;;21.50;99.90;;;;;;7381833;19;20157;-70
2023/08/06 12:02:17;;;;;;;0.00;0.00;;;21.50;99.90;;;;;;7379259;19;20184;-69
2023/08/06 12:05:01;;;;;;;0.00;0.00;;;21.40;99.90;;;;;;7381924;19;20159;-74
2023/08/06 12:07:32;;;;;;;0.00;0.00;;;21.40;99.90;;;;;;7381626;19;20155;-71
2023/08/06 12:10:01;;;;;;;0.00;0.00;;;21.40;99.90;;;;;;7378658;19;20149;-72
2023/08/06 12:12:32;;;;;;;0.00;0.00;;;21.50;99.90;;;;;;7369932;19;20172;-73
2023/08/06 12:15:01;;;;;;;0.00;0.00;;;21.60;99.90;;;;;;7379013;19;20161;-71
2023/08/06 12:17:29;;;;;;;0.00;0.00;;;21.70;99.90;;;;;;7381280;19;20129;-72
2023/08/06 12:19:58;;;;;;;0.00;0.00;;;21.80;99.90;;;;;;7380388;19;20168;-70
2023/08/06 12:22:27;;;;;;;0.00;0.00;;;22.00;99.90;;;;;;7373633;19;20248;-73
2023/08/06 12:24:55;;;;;;;0.00;0.00;;;22.10;99.90;;;;;;7375444;19;20177;-72
2023/08/06 12:27:24;;;;;;;0.00;0.00;;;22.30;99.90;;;;;;7371680;19;20136;-71
2023/08/06 12:29:55;;;;;;;0.00;0.00;;;22.40;99.90;;;;;;7380737;19;20164;-71
2023/08/06 12:32:24;;;;;;;0.00;0.00;;;22.30;99.90;;;;;;7381798;19;20198;-72
2023/08/06 12:34:53;;;;;;;0.00;0.00;;;22.50;99.90;;;;;;7381914;19;20141;-71
2023/08/06 12:37:21;;;;;;;0.00;0.00;;;22.80;99.90;;;;;;7378658;19;20165;-71
2023/08/06 12:39:50;;;;;;;0.00;0.00;;;22.80;99.90;;;;;;7369779;19;20145;-71
2023/08/06 12:42:19;;;;;;;0.00;0.00;;;22.90;99.90;;;;;;7376816;19;20153;-74
2023/08/06 12:44:47;;;;;;;0.00;0.00;;;22.90;99.90;;;;;;7377173;19;20246;-74
2023/08/06 12:47:19;;;;;;;0.00;0.00;;;22.90;99.90;;;;;;7379578;19;20156;-74
2023/08/06 12:49:49;;;;;;;0.00;0.00;;;23.20;99.90;;;;;;7381612;19;20141;-71
2023/08/06 12:52:19;;;;;;;0.00;0.00;;;23.20;99.90;;;;;;7380716;19;20160;-71
2023/08/06 12:54:48;;;;;;;0.00;0.00;;;23.20;99.90;;;;;;7378762;19;20157;-71
2023/08/06 12:57:17;;;;;;;0.00;0.00;;;23.20;99.90;;;;;;7379939;19;20164;-74
2023/08/06 12:59:45;;;;;;;0.00;0.00;;;23.10;99.90;;;;;;7380895;19;20144;-70
2023/08/06 13:02:14;;;;;;;0.00;0.00;;;23.20;99.90;;;;;;7377948;19;20184;-70
2023/08/06 13:04:45;;;;;;;0.00;0.00;;;23.10;99.90;;;;;;7375766;19;20156;-72
2023/08/06 13:07:14;;;;;;;0.00;0.00;;;23.30;99.90;;;;;;7375016;19;20164;-70
2023/08/06 13:09:43;;;;;;;0.00;0.00;;;23.20;99.90;;;;;;7377973;19;20132;-71
2023/08/06 13:12:11;;;;;;;0.00;0.00;;;23.20;99.90;;;;;;7374711;19;20180;-69
2023/08/06 13:14:40;;;;;;;0.00;0.00;;;23.30;99.90;;;;;;7375365;19;20164;-73
2023/08/06 13:17:09;;;;;;;0.00;0.00;;;23.10;99.90;;;;;;7375050;19;20162;-73
2023/08/06 13:19:38;;;;;;;0.00;0.00;;;23.10;99.90;;;;;;7377524;19;20133;-71
2023/08/06 13:22:09;;;;;;;0.00;0.00;;;22.80;99.90;;;;;;7377117;19;20188;-70
2023/08/06 13:24:38;;;;;;;0.00;0.00;;;22.90;99.90;;;;;;7378005;19;20149;-71
2023/08/06 13:27:10;;;;;;;0.00;0.00;;;22.80;99.90;;;;;;7376864;19;20632;-71
2023/08/06 13:29:38;;;;;;;0.00;0.00;;;22.90;99.90;;;;;;7375076;19;20149;-70
2023/08/06 13:32:08;;;;;;;0.00;0.00;;;22.90;99.90;;;;;;7379147;19;20153;-71
2023/08/06 13:34:36;;;;;;;0.00;0.00;;;22.90;99.90;;;;;;7384933;19;20169;-71
2023/08/06 13:37:05;;;;;;;0.00;0.00;;;22.80;99.90;;;;;;7386134;19;20137;-71
2023/08/06 13:39:36;;;;;;;0.00;0.00;;;22.90;99.90;;;;;;7386254;19;20148;-71
2023/08/06 13:42:05;;;;;;;0.00;0.00;;;22.90;99.90;;;;;;7377443;19;20188;-72
2023/08/06 13:44:35;;;;;;;0.00;0.00;;;23.00;99.90;;;;;;7385588;19;20201;-71
2023/08/06 13:47:04;;;;;;;0.00;0.00;;;22.90;99.90;;;;;;7383850;19;20157;-73
2023/08/06 13:49:33;;;;;;;0.00;0.00;;;;;;;;;;7384720;19;20176;-74
2023/08/06 13:52:02;;;;;;;0.00;0.00;;;22.80;99.90;;;;;;7385891;19;20133;-71
2023/08/06 13:54:30;;;;;;;0.00;0.00;;;23.00;99.90;;;;;;7386342;19;20133;-71
2023/08/06 13:57:01;;;;;;;0.00;0.00;;;23.00;99.90;;;;;;7382874;19;20184;-71
2023/08/06 13:59:30;;;;;;;0.00;0.00;;;22.90;99.90;;;;;;7383494;19;20169;-71
2023/08/06 14:01:59;;;;;;;0.00;0.00;;;22.90;99.90;;;;;;7385280;19;20145;-71
2023/08/06 14:04:28;;;;;;;0.00;0.00;;;22.80;99.90;;;;;;7391829;19;20167;-74
2023/08/06 14:06:57;;;;;;;0.00;0.00;;;22.80;99.90;;;;;;7391592;19;20619;-71
2023/08/06 14:09:25;;;;;;;0.00;0.00;;;22.70;99.90;;;;;;7386848;19;20133;-71